createdAt,value
2017-03-14T00:03:29.351Z,1023.92
2017-03-14T00:08:26.944Z,1023.78
2017-03-14T00:13:23.562Z,1023.71
2017-03-14T00:18:19.607Z,1023.74
2017-03-14T00:23:16.022Z,1023.73
2017-03-14T00:28:12.419Z,1023.72
2017-03-14T00:33:08.877Z,1023.76
2017-03-14T00:38:05.242Z,1023.60
2017-03-14T00:43:01.633Z,1023.77
2017-03-14T00:47:57.716Z,1023.75
2017-03-14T00:52:54.238Z,1023.85
2017-03-14T00:57:50.778Z,1023.84
2017-03-14T01:02:46.979Z,1023.85
2017-03-14T01:07:43.425Z,1023.82
2017-03-14T01:12:39.702Z,1023.84
2017-03-14T01:17:36.335Z,1023.86
2017-03-14T01:22:32.908Z,1023.87
2017-03-14T01:27:29.318Z,1023.84
2017-03-14T01:32:25.657Z,1023.93
2017-03-14T01:37:22.799Z,1023.88
2017-03-14T01:42:19.407Z,1023.87
2017-03-14T01:47:15.569Z,1023.80
2017-03-14T01:52:11.975Z,1023.77
2017-03-14T01:57:08.993Z,1023.69
2017-03-14T02:02:05.267Z,1023.79
2017-03-14T02:07:01.987Z,1023.85
2017-03-14T02:11:58.368Z,1024.01
2017-03-14T02:16:54.462Z,1024.04
2017-03-14T02:21:51.113Z,1024.12
2017-03-14T02:26:47.559Z,1024.17
2017-03-14T02:31:44.073Z,1024.12
2017-03-14T02:36:41.049Z,1024.08
2017-03-14T02:41:37.580Z,1024.11
2017-03-14T02:46:33.985Z,1024.14
2017-03-14T02:51:29.936Z,1024.24
2017-03-14T02:56:26.314Z,1024.23
2017-03-14T03:01:22.802Z,1024.14
2017-03-14T03:06:19.337Z,1024.03
2017-03-14T03:11:16.938Z,1024.07
2017-03-14T03:16:13.517Z,1024.06
2017-03-14T03:21:09.758Z,1024.29
2017-03-14T03:26:06.182Z,1024.15
2017-03-14T03:31:02.649Z,1023.94
2017-03-14T03:35:59.280Z,1023.88
2017-03-14T03:40:55.563Z,1023.91
2017-03-14T03:45:52.278Z,1023.84
2017-03-14T03:50:49.001Z,1024.00
2017-03-14T03:55:46.099Z,1024.06
2017-03-14T04:00:43.165Z,1024.03
2017-03-14T04:05:39.542Z,1024.10
2017-03-14T04:10:35.929Z,1024.14
2017-03-14T04:15:32.497Z,1024.18
2017-03-14T04:20:28.983Z,1024.19
2017-03-14T04:25:25.437Z,1024.23
2017-03-14T04:30:21.703Z,1024.21
2017-03-14T04:35:18.837Z,1024.16
2017-03-14T04:40:15.217Z,1024.26
2017-03-14T04:45:11.627Z,1024.16
2017-03-14T04:50:08.435Z,1024.11
2017-03-14T04:55:04.581Z,1024.07
2017-03-14T05:00:00.943Z,1024.13
2017-03-14T05:04:57.341Z,1024.17
2017-03-14T05:09:53.701Z,1024.13
2017-03-14T05:14:50.236Z,1024.08
2017-03-14T05:19:46.543Z,1024.06
2017-03-14T05:24:42.913Z,1024.06
2017-03-14T05:29:39.232Z,1023.91
2017-03-14T05:34:35.938Z,1023.94
2017-03-14T05:39:32.397Z,1023.97
2017-03-14T05:44:28.800Z,1023.93
2017-03-14T05:49:25.221Z,1024.12
2017-03-14T05:54:21.463Z,1024.13
2017-03-14T05:59:18.041Z,1024.20
2017-03-14T06:04:14.559Z,1024.13
2017-03-14T06:09:11.191Z,1024.02
2017-03-14T06:14:07.801Z,1024.13
2017-03-14T06:19:04.192Z,1024.00
2017-03-14T06:24:00.435Z,1024.12
2017-03-14T06:28:57.166Z,1023.95
2017-03-14T06:33:54.156Z,1024.07
2017-03-14T06:38:50.864Z,1024.04
2017-03-14T06:43:47.634Z,1024.21
2017-03-14T06:48:44.198Z,1024.24
2017-03-14T06:53:40.432Z,1024.18
2017-03-14T06:58:37.295Z,1024.19
2017-03-14T07:03:33.968Z,1024.24
2017-03-14T07:08:31.026Z,1024.12
2017-03-14T07:13:27.672Z,1024.22
2017-03-14T07:18:24.144Z,1024.18
2017-03-14T07:23:22.009Z,1024.29
2017-03-14T07:28:19.655Z,1024.46
2017-03-14T07:33:16.392Z,1024.66
2017-03-14T07:38:12.966Z,1024.71
2017-03-14T07:43:09.940Z,1024.64
2017-03-14T07:48:06.427Z,1024.74
2017-03-14T07:53:02.698Z,1024.67
2017-03-14T07:57:59.190Z,1024.62
2017-03-14T08:02:55.498Z,1024.69
2017-03-14T08:07:52.080Z,1024.70
2017-03-14T08:12:48.459Z,1024.67
2017-03-14T08:17:45.087Z,1024.67
2017-03-14T08:22:42.478Z,1024.70
2017-03-14T08:27:39.190Z,1024.62
2017-03-14T08:32:35.496Z,1024.55
2017-03-14T08:37:32.482Z,1024.58
2017-03-14T08:42:29.283Z,1024.70
2017-03-14T08:47:25.756Z,1024.69
2017-03-14T08:52:22.418Z,1024.75
2017-03-14T08:57:20.202Z,1024.75
2017-03-14T09:02:16.185Z,1024.80
2017-03-14T09:07:12.933Z,1024.76
2017-03-14T09:12:09.678Z,1024.72
2017-03-14T09:17:06.251Z,1024.85
2017-03-14T09:22:03.041Z,1024.76
2017-03-14T09:26:59.930Z,1024.70
2017-03-14T09:31:56.737Z,1024.66
2017-03-14T09:36:53.213Z,1024.71
2017-03-14T09:41:50.092Z,1024.56
2017-03-14T09:46:47.055Z,1024.56
2017-03-14T09:51:43.840Z,1024.49
2017-03-14T09:56:40.604Z,1024.39
2017-03-14T10:01:37.387Z,1024.43
2017-03-14T10:06:33.931Z,1024.21
2017-03-14T10:11:31.023Z,1024.33
2017-03-14T10:16:27.865Z,1024.32
2017-03-14T10:21:25.169Z,1024.40
2017-03-14T10:26:21.795Z,1024.27
2017-03-14T10:31:18.759Z,1024.07
2017-03-14T10:36:16.093Z,1024.14
2017-03-14T10:41:13.451Z,1024.04
2017-03-14T10:46:10.281Z,1023.95
2017-03-14T10:51:07.079Z,1023.84
2017-03-14T10:56:03.976Z,1023.85
2017-03-14T11:01:00.776Z,1023.80
2017-03-14T11:05:58.568Z,1023.65
2017-03-14T11:10:56.344Z,1023.62
2017-03-14T11:15:53.554Z,1023.63
2017-03-14T11:20:50.995Z,1023.61
2017-03-14T11:25:47.844Z,1023.65
2017-03-14T11:30:45.896Z,1023.60
2017-03-14T11:35:42.391Z,1023.62
2017-03-14T11:40:39.093Z,1023.65
2017-03-14T11:45:35.953Z,1023.62
2017-03-14T11:50:32.802Z,1023.66
2017-03-14T11:55:29.386Z,1023.66
2017-03-14T12:00:25.411Z,1023.68
2017-03-14T12:05:21.697Z,1023.79
2017-03-14T12:10:18.746Z,1023.84
2017-03-14T12:15:15.174Z,1023.70
2017-03-14T12:20:13.317Z,1023.63
2017-03-14T12:25:10.681Z,1023.66
2017-03-14T12:30:06.972Z,1023.71
2017-03-14T12:35:03.473Z,1023.58
2017-03-14T12:40:00.501Z,1023.47
2017-03-14T12:44:57.036Z,1023.49
2017-03-14T12:49:53.213Z,1023.55
2017-03-14T12:54:49.712Z,1023.36
2017-03-14T12:59:47.205Z,1023.45
2017-03-14T13:04:43.828Z,1023.43
2017-03-14T13:09:40.837Z,1023.22
2017-03-14T13:14:37.769Z,1023.20
2017-03-14T13:19:34.536Z,1022.90
2017-03-14T13:24:31.496Z,1022.88
2017-03-14T13:29:28.135Z,1022.90
2017-03-14T13:34:25.060Z,1022.85
2017-03-14T13:39:21.699Z,1023.05
2017-03-14T13:44:18.420Z,1023.02
2017-03-14T13:49:14.336Z,1022.87
2017-03-14T13:54:11.697Z,1022.96
2017-03-14T13:59:08.185Z,1023.03
2017-03-14T14:04:04.845Z,1022.86
2017-03-14T14:09:01.051Z,1022.85
2017-03-14T14:13:58.199Z,1022.87
2017-03-14T14:18:55.043Z,1022.85
2017-03-14T14:23:52.660Z,1022.78
2017-03-14T14:28:48.628Z,1022.84
2017-03-14T14:33:45.591Z,1022.87
2017-03-14T14:38:42.038Z,1022.91
2017-03-14T14:43:39.190Z,1022.92
2017-03-14T14:48:35.864Z,1022.76
2017-03-14T14:53:32.190Z,1022.63
2017-03-14T14:58:28.911Z,1022.63
2017-03-14T15:03:25.234Z,1022.61
2017-03-14T15:08:22.402Z,1022.60
2017-03-14T15:13:18.985Z,1022.54
2017-03-14T15:18:15.563Z,1022.46
2017-03-14T15:23:12.155Z,1022.40
2017-03-14T15:28:08.735Z,1022.46
2017-03-14T15:33:05.262Z,1022.51
2017-03-14T15:38:01.969Z,1022.52
2017-03-14T15:42:58.937Z,1022.49
2017-03-14T15:47:55.659Z,1022.51
2017-03-14T15:52:53.111Z,1022.59
2017-03-14T15:57:49.695Z,1022.56
2017-03-14T16:02:46.012Z,1022.41
2017-03-14T16:07:42.536Z,1022.45
2017-03-14T16:12:40.018Z,1022.56
2017-03-14T16:17:36.633Z,1022.64
2017-03-14T16:22:33.420Z,1022.75
2017-03-14T16:27:30.177Z,1022.82
2017-03-14T16:32:26.615Z,1022.77
2017-03-14T16:37:23.350Z,1022.76
2017-03-14T16:42:19.704Z,1022.80
2017-03-14T16:47:16.020Z,1022.61
2017-03-14T16:52:12.525Z,1022.49
2017-03-14T16:57:09.014Z,1022.66
2017-03-14T17:02:05.310Z,1022.67
2017-03-14T17:07:01.753Z,1022.78
2017-03-14T17:11:58.804Z,1022.97
2017-03-14T17:16:55.618Z,1022.96
2017-03-14T17:21:52.011Z,1022.85
2017-03-14T17:26:48.494Z,1023.10
2017-03-14T17:31:45.531Z,1023.05
2017-03-14T17:36:42.219Z,1023.04
2017-03-14T17:41:38.675Z,1023.00
2017-03-14T17:46:35.284Z,1023.07
2017-03-14T17:51:31.914Z,1023.09
2017-03-14T17:56:28.314Z,1023.13
2017-03-14T18:01:24.922Z,1023.08
2017-03-14T18:06:21.658Z,1023.02
2017-03-14T18:11:18.539Z,1022.91
2017-03-14T18:16:14.859Z,1022.95
2017-03-14T18:21:11.407Z,1022.93
2017-03-14T18:26:08.672Z,1022.91
2017-03-14T18:31:05.080Z,1023.00
2017-03-14T18:36:02.360Z,1022.99
2017-03-14T18:40:58.754Z,1023.05
2017-03-14T18:45:55.262Z,1022.80
2017-03-14T18:50:51.709Z,1022.94
2017-03-14T18:55:47.883Z,1022.87
2017-03-14T19:00:44.224Z,1022.87
2017-03-14T19:05:40.554Z,1022.80
2017-03-14T19:10:36.734Z,1022.87
2017-03-14T19:15:33.109Z,1022.87
2017-03-14T19:20:29.525Z,1022.88
2017-03-14T19:25:26.095Z,1023.25
2017-03-14T19:30:22.886Z,1023.20
2017-03-14T19:35:19.428Z,1023.34
2017-03-14T19:40:15.828Z,1023.41
2017-03-14T19:45:12.296Z,1023.37
2017-03-14T19:50:08.805Z,1023.52
2017-03-14T19:55:05.233Z,1023.59
2017-03-14T20:00:01.551Z,1023.63
2017-03-14T20:04:57.751Z,1023.90
2017-03-14T20:09:55.111Z,1023.88
2017-03-14T20:14:51.547Z,1023.69
2017-03-14T20:19:47.880Z,1023.87
2017-03-14T20:24:45.477Z,1023.92
2017-03-14T20:29:41.836Z,1023.86
2017-03-14T20:34:38.280Z,1023.93
2017-03-14T20:39:34.587Z,1024.05
2017-03-14T20:44:30.905Z,1024.11
2017-03-14T20:49:29.272Z,1024.17
2017-03-14T20:54:25.832Z,1024.08
2017-03-14T20:59:22.133Z,1024.23
2017-03-14T21:04:18.883Z,1024.23
2017-03-14T21:09:15.541Z,1024.26
2017-03-14T21:14:11.983Z,1024.42
2017-03-14T21:19:08.695Z,1024.34
2017-03-14T21:24:05.403Z,1024.36
2017-03-14T21:29:02.561Z,1024.20
2017-03-14T21:33:59.037Z,1024.15
2017-03-14T21:38:55.596Z,1024.02
2017-03-14T21:43:51.777Z,1024.06
2017-03-14T21:48:48.695Z,1024.04
2017-03-14T21:53:45.138Z,1024.16
2017-03-14T21:58:42.278Z,1024.15
2017-03-14T22:03:38.518Z,1024.18
2017-03-14T22:08:35.256Z,1024.14
2017-03-14T22:13:31.661Z,1024.10
2017-03-14T22:18:28.265Z,1024.02
2017-03-14T22:23:25.000Z,1023.95
2017-03-14T22:28:21.520Z,1023.96
2017-03-14T22:33:17.995Z,1024.09
2017-03-14T22:38:14.240Z,1024.11
2017-03-14T22:43:10.617Z,1024.00
2017-03-14T22:48:07.001Z,1024.10
2017-03-14T22:53:03.415Z,1024.17
2017-03-14T22:57:59.434Z,1024.27
2017-03-14T23:02:55.945Z,1024.23
2017-03-14T23:07:52.803Z,1024.11
2017-03-14T23:12:49.458Z,1024.10
2017-03-14T23:17:45.875Z,1024.23
2017-03-14T23:22:41.950Z,1024.18
2017-03-14T23:27:39.136Z,1024.21
2017-03-14T23:32:35.467Z,1024.01
2017-03-14T23:37:32.236Z,1024.08
2017-03-14T23:42:28.685Z,1023.95
2017-03-14T23:47:25.068Z,1024.03
2017-03-14T23:52:21.513Z,1024.00
2017-03-14T23:57:17.775Z,1023.82
